Weather at Ojibwa Airpark

Public forecast

Using degrees Fahrenheit for public forecast. Weather courtesy of forecast.io.

Closest aviation weather report (METAR) to Ojibwa Airpark

Closest report is Mount Pleasant Municipal Airport, 12.9 nm (24.0 km) ESE. Retrieved 2020/10/25 13:35 UTC (7 minutes ago):

KMOP 251335Z AUTO 01003KT 10SM CLR 03/01 A3028 RMK AO2 T00330008

Closest aviation forecast (TAF) to Ojibwa Airpark

Closest forecast is MBS International Airport, 41.7 nm (77.2 km) ESE. Retrieved 2020/10/25 12:22 UTC (1 hour ago):

TAF KMBS 251120Z 2512/2612 08003KT P6SM BKN100 FM251400 05004KT P6SM SCT150 FM251800 06009KT P6SM OVC120 FM260000 06005KT P6SM BKN040 OVC070 FM260300 05006KT P6SM OVC030